Glencove, Washington
Current Conditions -  °F | °C
As of 1:53 AM on Friday 24 Oct 2014 (Local Time) from KTIW Reporting Station
Overcast Overcast  
Wind Chill:   Ceiling: 4600
Heat Index:   Visibility: 10mi
Dew Point:   Wind: 3mph
Humidity: 90%   Direction: 100°E
Pressure: 30.02"   Gusts: NA
Location:  47.2986°N, 122.616°W
Report Text: KTIW 240853Z AUTO 10003KT 10SM FEW007 BKN046 OVC080 09/08 A3002 RMK AO2 RAE27 SLP166 P0001 60005 T00940078 50011
Loading
Personal Weather Stations






























Interactive Weather Map
Tropical Storm Tracking
New forecast layout! Learn more

10-Day Weather Forecast

Advertisements
Track Severe Weather on mobile